createdAt,value
2018-03-20T00:01:10.868Z,72.03
2018-03-20T00:03:38.426Z,68.20
2018-03-20T00:06:05.966Z,76.73
2018-03-20T00:08:33.527Z,77.43
2018-03-20T00:11:01.065Z,74.80
2018-03-20T00:13:29.360Z,67.80
2018-03-20T00:15:56.920Z,73.53
2018-03-20T00:18:24.455Z,78.30
2018-03-20T00:20:52.018Z,71.73
2018-03-20T00:23:19.540Z,70.20
2018-03-20T00:25:47.106Z,72.20
2018-03-20T00:28:14.648Z,87.37
2018-03-20T00:30:42.192Z,66.83
2018-03-20T00:33:09.755Z,63.47
2018-03-20T00:35:37.276Z,66.40
2018-03-20T00:38:04.835Z,65.60
2018-03-20T00:40:32.391Z,76.50
2018-03-20T00:43:00.982Z,69.43
2018-03-20T00:45:28.527Z,71.20
2018-03-20T00:47:56.822Z,74.63
2018-03-20T00:50:25.394Z,63.33
2018-03-20T00:52:53.920Z,64.40
2018-03-20T00:55:21.482Z,62.87
2018-03-20T00:57:49.006Z,69.73
2018-03-20T01:00:16.578Z,66.57
2018-03-20T01:02:44.142Z,68.60
2018-03-20T01:05:11.668Z,68.90
2018-03-20T01:07:39.219Z,85.57
2018-03-20T01:10:06.751Z,72.70
2018-03-20T01:12:34.307Z,72.50
2018-03-20T01:15:01.830Z,72.40
2018-03-20T01:17:29.389Z,68.23
2018-03-20T01:19:56.928Z,69.73
2018-03-20T01:22:24.457Z,69.40
2018-03-20T01:24:52.026Z,77.30
2018-03-20T01:27:19.566Z,64.63
2018-03-20T01:29:47.158Z,66.53
2018-03-20T01:32:14.686Z,83.87
2018-03-20T01:34:43.012Z,65.70
2018-03-20T01:37:10.538Z,66.20
2018-03-20T01:39:38.844Z,64.03
2018-03-20T01:42:07.414Z,64.13
2018-03-20T01:44:35.654Z,56.40
2018-03-20T01:47:05.771Z,63.90
2018-03-20T01:49:34.286Z,55.13
2018-03-20T01:52:01.938Z,55.27
2018-03-20T01:54:31.207Z,55.97
2018-03-20T01:56:58.791Z,61.30
2018-03-20T01:59:27.120Z,56.10
2018-03-20T02:01:54.645Z,71.20
2018-03-20T02:04:22.209Z,47.87
2018-03-20T02:06:50.715Z,107.90
2018-03-20T02:09:18.295Z,57.13
2018-03-20T02:11:45.978Z,51.40
2018-03-20T02:14:13.556Z,52.97
2018-03-20T02:16:41.095Z,45.43
2018-03-20T02:19:09.410Z,47.17
2018-03-20T02:21:37.187Z,45.80
2018-03-20T02:24:05.694Z,44.43
2018-03-20T02:26:33.532Z,44.23
2018-03-20T02:29:01.059Z,44.17
2018-03-20T02:31:28.598Z,40.13
2018-03-20T02:33:56.174Z,41.00
2018-03-20T02:36:24.678Z,39.90
2018-03-20T02:38:54.190Z,42.60
2018-03-20T02:41:21.742Z,53.83
2018-03-20T02:43:49.312Z,41.93
2018-03-20T02:46:22.603Z,42.13
2018-03-20T02:48:50.153Z,57.80
2018-03-20T02:51:17.729Z,40.50
2018-03-20T02:53:45.279Z,45.07
2018-03-20T02:56:12.843Z,51.83
2018-03-20T02:58:40.373Z,54.33
2018-03-20T03:01:07.937Z,63.30
2018-03-20T03:03:35.464Z,43.10
2018-03-20T03:06:03.789Z,42.23
2018-03-20T03:08:31.324Z,47.70
2018-03-20T03:10:59.623Z,44.93
2018-03-20T03:13:27.492Z,42.23
2018-03-20T03:15:55.717Z,42.20
2018-03-20T03:18:25.074Z,41.53
2018-03-20T03:20:52.927Z,38.93
2018-03-20T03:23:20.996Z,48.57
2018-03-20T03:25:49.310Z,40.93
2018-03-20T03:28:17.361Z,38.47
2018-03-20T03:30:45.941Z,40.60
2018-03-20T03:33:14.422Z,51.30
2018-03-20T03:35:42.818Z,39.83
2018-03-20T03:38:10.628Z,39.53
2018-03-20T03:40:39.041Z,45.53
2018-03-20T03:43:07.378Z,40.83
2018-03-20T03:45:35.997Z,46.63
2018-03-20T03:48:03.556Z,44.37
2018-03-20T03:50:31.113Z,39.30
2018-03-20T03:52:58.681Z,38.73
2018-03-20T03:55:26.225Z,53.83
2018-03-20T03:57:54.218Z,45.93
2018-03-20T04:00:22.706Z,50.93
2018-03-20T04:02:50.227Z,40.73
2018-03-20T04:05:18.224Z,37.67
2018-03-20T04:07:46.599Z,44.30
2018-03-20T04:10:14.778Z,40.40
2018-03-20T04:12:42.637Z,44.90
2018-03-20T04:15:10.207Z,73.17
2018-03-20T04:17:37.752Z,37.63
2018-03-20T04:20:06.131Z,40.97
2018-03-20T04:22:34.167Z,61.90
2018-03-20T04:25:03.164Z,39.17
2018-03-20T04:27:31.150Z,42.83
2018-03-20T04:29:59.545Z,40.50
2018-03-20T04:32:27.823Z,46.43
2018-03-20T04:34:56.268Z,40.73
2018-03-20T04:37:24.586Z,44.00
2018-03-20T04:39:52.159Z,49.63
2018-03-20T04:42:19.683Z,40.00
2018-03-20T04:44:47.214Z,45.77
2018-03-20T04:47:15.713Z,55.13
2018-03-20T04:49:43.251Z,42.90
2018-03-20T04:52:12.381Z,43.93
2018-03-20T04:54:40.938Z,54.27
2018-03-20T04:57:10.180Z,43.60
2018-03-20T04:59:39.000Z,49.60
2018-03-20T05:02:07.390Z,52.10
2018-03-20T05:04:36.718Z,46.17
2018-03-20T05:07:05.462Z,49.27
2018-03-20T05:09:35.124Z,44.93
2018-03-20T05:12:03.377Z,46.10
2018-03-20T05:14:32.148Z,40.03
2018-03-20T05:17:00.149Z,54.70
2018-03-20T05:19:28.236Z,47.57
2018-03-20T05:22:12.771Z,44.10
2018-03-20T05:24:41.177Z,45.90
2018-03-20T05:27:09.330Z,42.30
2018-03-20T05:29:37.974Z,47.80
2018-03-20T05:32:06.103Z,63.90
2018-03-20T05:34:35.281Z,62.50
2018-03-20T05:37:05.115Z,45.87
2018-03-20T05:39:33.979Z,43.23
2018-03-20T05:42:02.413Z,47.00
2018-03-20T05:44:31.847Z,41.37
2018-03-20T05:50:06.005Z,52.62
2018-03-20T05:52:34.814Z,46.90
2018-03-20T05:55:03.404Z,42.10
2018-03-20T05:57:32.178Z,57.90
2018-03-20T06:00:00.866Z,46.67
2018-03-20T06:02:30.476Z,50.37
2018-03-20T06:04:59.052Z,45.60
2018-03-20T06:07:28.623Z,43.73
2018-03-20T06:09:57.997Z,44.43
2018-03-20T06:12:29.728Z,45.37
2018-03-20T06:14:58.530Z,40.67
2018-03-20T06:17:28.182Z,42.10
2018-03-20T06:19:57.430Z,41.27
2018-03-20T06:22:25.962Z,63.00
2018-03-20T06:24:54.472Z,50.90
2018-03-20T06:27:25.970Z,44.50
2018-03-20T06:29:54.774Z,42.80
2018-03-20T06:32:23.556Z,60.57
2018-03-20T06:34:52.980Z,53.73
2018-03-20T06:37:21.584Z,41.30
2018-03-20T06:39:50.726Z,58.30
2018-03-20T06:42:20.315Z,48.43
2018-03-20T06:44:48.995Z,46.30
2018-03-20T06:47:17.463Z,44.10
2018-03-20T06:49:46.921Z,47.03
2018-03-20T06:52:15.736Z,54.70
2018-03-20T06:54:45.154Z,65.77
2018-03-20T06:57:13.543Z,46.07
2018-03-20T06:59:42.195Z,78.23
2018-03-20T07:02:12.045Z,44.80
2018-03-20T07:04:40.745Z,63.63
2018-03-20T07:07:09.843Z,51.40
2018-03-20T07:09:38.601Z,42.50
2018-03-20T07:12:07.006Z,44.47
2018-03-20T07:14:35.231Z,45.00
2018-03-20T07:17:04.064Z,48.20
2018-03-20T07:19:32.710Z,43.00
2018-03-20T07:22:02.518Z,49.10
2018-03-20T07:24:31.253Z,58.73
2018-03-20T07:26:59.492Z,45.27
2018-03-20T07:29:28.063Z,44.40
2018-03-20T07:31:56.712Z,46.53
2018-03-20T07:34:26.168Z,47.70
2018-03-20T07:36:54.718Z,50.50
2018-03-20T07:39:23.282Z,45.33
2018-03-20T07:41:51.731Z,47.10
2018-03-20T07:44:20.293Z,54.93
2018-03-20T07:46:49.092Z,42.53
2018-03-20T07:49:17.664Z,46.33
2018-03-20T07:51:45.623Z,47.90
2018-03-20T07:54:13.923Z,46.83
2018-03-20T07:56:42.903Z,44.00
2018-03-20T07:59:11.638Z,53.23
2018-03-20T08:01:41.087Z,45.20
2018-03-20T08:04:09.610Z,49.53
2018-03-20T08:06:38.049Z,57.70
2018-03-20T08:09:06.394Z,47.33
2018-03-20T08:11:35.420Z,58.00
2018-03-20T08:14:03.995Z,50.87
2018-03-20T08:16:32.263Z,44.73
2018-03-20T08:19:01.016Z,67.50
2018-03-20T08:21:29.696Z,51.03
2018-03-20T08:23:58.117Z,50.70
2018-03-20T08:26:26.819Z,42.77
2018-03-20T08:28:55.571Z,42.60
2018-03-20T08:31:25.157Z,43.47
2018-03-20T08:33:54.404Z,47.63
2018-03-20T08:36:24.922Z,51.20
2018-03-20T08:38:53.550Z,54.00
2018-03-20T08:41:22.436Z,53.20
2018-03-20T08:43:51.008Z,46.40
2018-03-20T08:46:19.564Z,108.67
2018-03-20T08:48:49.003Z,72.63
2018-03-20T08:51:17.522Z,47.07
2018-03-20T08:53:46.191Z,59.77
2018-03-20T08:56:14.200Z,47.50
2018-03-20T08:58:43.046Z,50.93
2018-03-20T09:01:12.422Z,53.80
2018-03-20T09:03:40.970Z,51.90
2018-03-20T09:06:10.181Z,44.67
2018-03-20T09:08:38.705Z,47.33
2018-03-20T09:11:07.772Z,42.40
2018-03-20T09:13:36.537Z,39.70
2018-03-20T09:16:05.021Z,51.97
2018-03-20T09:18:33.288Z,55.37
2018-03-20T09:21:01.859Z,46.77
2018-03-20T09:23:31.082Z,42.30
2018-03-20T09:25:59.468Z,42.37
2018-03-20T09:28:29.685Z,50.30
2018-03-20T09:30:58.167Z,51.03
2018-03-20T09:33:26.542Z,40.93
2018-03-20T09:35:54.703Z,48.43
2018-03-20T09:38:22.788Z,48.53
2018-03-20T09:40:50.761Z,73.33
2018-03-20T09:43:19.256Z,29.07
2018-03-20T09:45:48.142Z,27.03
2018-03-20T09:48:17.432Z,29.43
2018-03-20T09:50:46.286Z,29.60
2018-03-20T09:53:15.798Z,31.00
2018-03-20T09:55:44.523Z,28.83
2018-03-20T09:58:13.483Z,33.07
2018-03-20T10:00:42.294Z,33.57
2018-03-20T10:03:10.557Z,34.60
2018-03-20T10:05:39.072Z,33.50
2018-03-20T10:08:07.831Z,38.80
2018-03-20T10:10:36.438Z,32.10
2018-03-20T10:13:06.202Z,30.27
2018-03-20T10:15:36.705Z,28.80
2018-03-20T10:18:05.737Z,26.40
2018-03-20T10:20:34.286Z,32.23
2018-03-20T10:23:02.597Z,30.60
2018-03-20T10:25:31.101Z,27.60
2018-03-20T10:27:59.149Z,34.50
2018-03-20T10:30:27.723Z,27.93
2018-03-20T10:32:55.916Z,30.67
2018-03-20T10:35:24.776Z,33.70
2018-03-20T10:37:53.071Z,26.93
2018-03-20T10:40:22.603Z,31.00
2018-03-20T10:42:51.267Z,38.43
2018-03-20T10:45:19.948Z,33.43
2018-03-20T10:47:49.507Z,42.90
2018-03-20T10:50:17.918Z,28.00
2018-03-20T10:52:46.333Z,24.80
2018-03-20T10:55:15.432Z,31.77
2018-03-20T10:57:43.589Z,26.43
2018-03-20T11:00:12.407Z,27.43
2018-03-20T11:02:47.262Z,31.30
2018-03-20T11:05:16.019Z,26.63
2018-03-20T11:07:44.429Z,25.70
2018-03-20T11:10:13.727Z,34.03
2018-03-20T11:12:42.760Z,33.67
2018-03-20T11:15:11.589Z,25.60
2018-03-20T11:17:40.212Z,27.53
2018-03-20T11:20:08.694Z,23.20
2018-03-20T11:22:36.995Z,25.63
2018-03-20T11:25:05.688Z,32.00
2018-03-20T11:27:34.006Z,24.27
2018-03-20T11:30:02.462Z,33.17
2018-03-20T11:32:31.167Z,26.30
2018-03-20T11:34:59.998Z,30.30
2018-03-20T11:37:29.552Z,24.73
2018-03-20T11:40:00.250Z,28.80
2018-03-20T11:42:28.950Z,23.93
2018-03-20T11:44:57.624Z,28.57
2018-03-20T11:47:26.501Z,28.00
2018-03-20T11:49:55.316Z,28.90
2018-03-20T11:52:23.987Z,24.63
2018-03-20T11:54:53.813Z,27.63
2018-03-20T11:57:23.350Z,30.17
2018-03-20T11:59:52.315Z,31.90
2018-03-20T12:02:21.095Z,32.17
2018-03-20T12:04:49.796Z,27.00
2018-03-20T12:07:18.622Z,30.23
2018-03-20T12:09:49.385Z,28.80
2018-03-20T12:12:17.571Z,30.63
2018-03-20T12:14:46.059Z,27.90
2018-03-20T12:17:14.433Z,30.63
2018-03-20T12:19:42.687Z,38.93
2018-03-20T12:22:11.096Z,32.20
2018-03-20T12:24:40.378Z,35.77
2018-03-20T12:27:08.749Z,33.40
2018-03-20T12:29:36.717Z,38.67
2018-03-20T12:32:07.531Z,34.53
2018-03-20T12:34:36.312Z,35.97
2018-03-20T12:37:05.439Z,44.93
2018-03-20T12:39:33.924Z,35.60
2018-03-20T12:42:02.102Z,46.73
2018-03-20T12:44:32.321Z,38.60
2018-03-20T12:47:00.920Z,34.23
2018-03-20T12:49:29.773Z,29.87
2018-03-20T12:51:58.064Z,27.47
2018-03-20T12:54:27.729Z,43.60
2018-03-20T12:56:57.063Z,32.70
2018-03-20T12:59:25.745Z,35.37
2018-03-20T13:01:54.662Z,37.70
2018-03-20T13:04:24.164Z,31.73
2018-03-20T13:06:52.692Z,36.57
2018-03-20T13:09:21.258Z,34.50
2018-03-20T13:11:50.301Z,30.00
2018-03-20T13:14:18.911Z,29.00
2018-03-20T13:16:47.707Z,30.23
2018-03-20T13:19:16.305Z,27.33
2018-03-20T13:21:45.810Z,25.30
2018-03-20T13:24:14.460Z,29.73
2018-03-20T13:26:44.040Z,31.03
2018-03-20T13:29:12.561Z,25.93
2018-03-20T13:31:41.198Z,27.90
2018-03-20T13:34:09.394Z,27.03
2018-03-20T13:36:37.832Z,27.77
2018-03-20T13:39:06.054Z,27.10
2018-03-20T13:41:34.860Z,26.20
2018-03-20T13:44:03.125Z,27.10
2018-03-20T13:46:31.739Z,22.87
2018-03-20T13:48:59.568Z,27.23
2018-03-20T13:51:28.578Z,23.83
2018-03-20T13:53:57.019Z,26.87
2018-03-20T13:56:25.497Z,23.77
2018-03-20T13:58:54.788Z,22.67
2018-03-20T14:01:30.483Z,24.10
2018-03-20T14:04:06.224Z,24.60
2018-03-20T14:06:34.487Z,24.53
2018-03-20T14:09:02.809Z,21.97
2018-03-20T14:11:31.375Z,37.07
2018-03-20T14:14:00.168Z,25.57
2018-03-20T14:16:28.495Z,25.37
2018-03-20T14:18:57.526Z,23.17
2018-03-20T14:21:25.948Z,23.37
2018-03-20T14:23:54.378Z,21.70
2018-03-20T14:26:22.957Z,26.63
2018-03-20T14:28:51.426Z,24.67
2018-03-20T14:31:20.062Z,26.50
2018-03-20T14:33:48.405Z,22.17
2018-03-20T14:36:17.263Z,24.00
2018-03-20T14:38:45.777Z,23.33
2018-03-20T14:41:14.350Z,33.37
2018-03-20T14:43:43.074Z,26.80
2018-03-20T14:46:13.255Z,28.17
2018-03-20T14:48:41.948Z,28.60
2018-03-20T14:51:10.583Z,25.60
2018-03-20T14:53:42.826Z,21.90
2018-03-20T14:56:11.266Z,24.47
2018-03-20T14:58:41.400Z,27.83
2018-03-20T15:01:10.967Z,24.30
2018-03-20T15:03:40.508Z,24.13
2018-03-20T15:06:09.052Z,22.03
2018-03-20T15:08:37.414Z,21.57
2018-03-20T15:11:06.380Z,21.23
2018-03-20T15:13:35.954Z,26.87
2018-03-20T15:16:04.057Z,22.77
2018-03-20T15:18:32.218Z,20.80
2018-03-20T15:21:00.561Z,20.03
2018-03-20T15:23:29.793Z,20.07
2018-03-20T15:25:58.453Z,20.47
2018-03-20T15:28:26.996Z,18.93
2018-03-20T15:30:56.621Z,16.27
2018-03-20T15:33:25.133Z,21.87
2018-03-20T15:35:53.835Z,20.97
2018-03-20T15:38:23.097Z,19.07
2018-03-20T15:40:51.613Z,15.87
2018-03-20T15:43:20.382Z,17.13
2018-03-20T15:45:49.103Z,18.70
2018-03-20T15:48:17.748Z,21.00
2018-03-20T15:50:46.048Z,18.80
2018-03-20T15:53:14.360Z,16.80
2018-03-20T15:55:43.589Z,16.33
2018-03-20T15:58:13.225Z,19.17
2018-03-20T16:00:41.514Z,18.57
2018-03-20T16:03:09.883Z,15.50
2018-03-20T16:05:38.671Z,25.77
2018-03-20T16:08:08.072Z,21.83
2018-03-20T16:10:36.253Z,16.20
2018-03-20T16:13:04.696Z,14.73
2018-03-20T16:15:34.040Z,20.67
2018-03-20T16:18:02.487Z,19.67
2018-03-20T16:20:30.926Z,18.23
2018-03-20T16:23:00.067Z,18.93
2018-03-20T16:25:28.171Z,17.90
2018-03-20T16:27:56.855Z,25.27
2018-03-20T16:30:25.673Z,17.97
2018-03-20T16:32:54.173Z,19.87
2018-03-20T16:35:22.397Z,17.17
2018-03-20T16:37:51.171Z,16.87
2018-03-20T16:40:20.616Z,19.37
2018-03-20T16:42:49.900Z,19.30
2018-03-20T16:45:18.648Z,21.00
2018-03-20T16:47:47.728Z,20.90
2018-03-20T16:50:17.442Z,23.47
2018-03-20T16:52:46.784Z,15.40
2018-03-20T16:55:16.161Z,20.53
2018-03-20T16:57:44.879Z,17.50
2018-03-20T17:00:13.254Z,18.30
2018-03-20T17:02:41.839Z,21.10
2018-03-20T17:05:10.397Z,20.70
2018-03-20T17:07:40.896Z,18.63
2018-03-20T17:10:10.214Z,16.83
2018-03-20T17:12:38.823Z,20.43
2018-03-20T17:15:07.823Z,17.60
2018-03-20T17:17:36.444Z,16.93
2018-03-20T17:20:05.271Z,17.27
2018-03-20T17:22:34.026Z,37.63
2018-03-20T17:25:03.311Z,25.30
2018-03-20T17:27:32.400Z,24.60
2018-03-20T17:30:00.416Z,20.70
2018-03-20T17:32:28.987Z,21.47
2018-03-20T17:34:58.109Z,18.40
2018-03-20T17:37:26.161Z,22.43
2018-03-20T17:39:54.166Z,20.90
2018-03-20T17:42:22.723Z,23.30
2018-03-20T17:44:51.435Z,20.23
2018-03-20T17:47:20.916Z,24.00
2018-03-20T17:49:51.540Z,22.03
2018-03-20T17:52:19.919Z,21.83
2018-03-20T17:54:48.812Z,18.80
2018-03-20T17:57:16.984Z,20.20
2018-03-20T17:59:45.499Z,27.90
2018-03-20T18:02:13.813Z,22.80
2018-03-20T18:04:42.905Z,20.77
2018-03-20T18:07:11.243Z,18.83
2018-03-20T18:09:39.824Z,21.83
2018-03-20T18:12:08.798Z,17.23
2018-03-20T18:14:37.159Z,21.13
2018-03-20T18:17:05.750Z,24.37
2018-03-20T18:19:34.413Z,20.23
2018-03-20T18:22:03.959Z,22.83
2018-03-20T18:24:32.550Z,22.97
2018-03-20T18:27:01.754Z,25.63
2018-03-20T18:29:29.796Z,30.97
2018-03-20T18:31:58.392Z,22.00
2018-03-20T18:34:26.352Z,23.07
2018-03-20T18:36:54.963Z,29.33
2018-03-20T18:39:23.414Z,30.13
2018-03-20T18:41:51.733Z,25.57
2018-03-20T18:44:20.904Z,20.80
2018-03-20T18:46:49.322Z,20.27
2018-03-20T18:49:17.725Z,25.03
2018-03-20T18:51:46.276Z,24.80
2018-03-20T18:54:14.391Z,26.13
2018-03-20T18:56:42.830Z,22.75
2018-03-20T18:59:12.203Z,26.40
2018-03-20T19:01:40.459Z,34.57
2018-03-20T19:04:09.440Z,29.63
2018-03-20T19:06:37.741Z,25.07
2018-03-20T19:09:06.212Z,24.50
2018-03-20T19:11:35.726Z,23.17
2018-03-20T19:14:03.252Z,40.13
2018-03-20T19:16:30.812Z,31.23
2018-03-20T19:18:58.383Z,32.90
2018-03-20T19:21:25.954Z,29.93
2018-03-20T19:23:53.537Z,31.60
2018-03-20T19:26:21.087Z,29.23
2018-03-20T19:28:48.609Z,38.17
2018-03-20T19:31:18.153Z,25.00
2018-03-20T19:33:45.672Z,32.10
2018-03-20T19:36:13.231Z,25.93
2018-03-20T19:38:40.760Z,22.23
2018-03-20T19:41:09.083Z,23.13
2018-03-20T19:43:36.603Z,34.70
2018-03-20T19:46:04.900Z,24.47
2018-03-20T19:48:34.433Z,25.93
2018-03-20T19:51:01.991Z,32.30
2018-03-20T19:53:30.317Z,25.37
2018-03-20T19:55:58.611Z,27.57
2018-03-20T19:58:28.102Z,27.60
2018-03-20T20:00:56.980Z,36.27
2018-03-20T20:03:25.312Z,25.17
2018-03-20T20:05:52.867Z,25.57
2018-03-20T20:08:20.422Z,27.50
2018-03-20T20:10:49.307Z,28.00
2018-03-20T20:13:16.945Z,35.37
2018-03-20T20:15:44.562Z,38.47
2018-03-20T20:18:12.167Z,32.43
2018-03-20T20:20:39.701Z,31.43
2018-03-20T20:23:07.251Z,36.70
2018-03-20T20:25:35.014Z,37.30
2018-03-20T20:28:02.545Z,31.93
2018-03-20T20:30:30.096Z,42.13
2018-03-20T20:32:57.651Z,36.00
2018-03-20T20:35:25.182Z,36.37
2018-03-20T20:37:52.705Z,39.20
2018-03-20T20:40:20.279Z,47.50
2018-03-20T20:42:47.836Z,58.50
2018-03-20T20:45:15.402Z,55.57
2018-03-20T20:47:43.750Z,58.50
2018-03-20T20:50:11.286Z,40.63
2018-03-20T20:52:38.825Z,39.50
2018-03-20T20:55:06.367Z,35.00
2018-03-20T20:57:34.735Z,32.87
2018-03-20T21:00:02.232Z,36.23
2018-03-20T21:02:29.810Z,35.73
2018-03-20T21:04:57.348Z,29.47
2018-03-20T21:07:24.918Z,34.30
2018-03-20T21:09:52.449Z,31.10
2018-03-20T21:12:19.982Z,33.70
2018-03-20T21:14:50.263Z,30.77
2018-03-20T21:17:17.798Z,31.33
2018-03-20T21:19:45.383Z,30.13
2018-03-20T21:22:13.868Z,30.20
2018-03-20T21:24:43.371Z,33.30
2018-03-20T21:27:10.894Z,40.37
2018-03-20T21:29:38.422Z,35.83
2018-03-20T21:32:06.770Z,33.50
2018-03-20T21:34:34.301Z,34.80
2018-03-20T21:37:01.867Z,36.13
2018-03-20T21:39:29.398Z,34.97
2018-03-20T21:41:56.959Z,34.87
2018-03-20T21:44:24.500Z,34.37
2018-03-20T21:46:52.986Z,37.17
2018-03-20T21:49:22.286Z,33.53
2018-03-20T21:51:50.602Z,34.37
2018-03-20T21:54:18.159Z,30.60
2018-03-20T21:56:45.688Z,33.67
2018-03-20T21:59:13.282Z,37.03
2018-03-20T22:01:40.825Z,36.43
2018-03-20T22:04:08.372Z,37.63
2018-03-20T22:06:36.686Z,39.63
2018-03-20T22:09:04.290Z,42.30
2018-03-20T22:11:32.855Z,43.30
2018-03-20T22:14:01.348Z,38.00
2018-03-20T22:16:28.887Z,38.70
2018-03-20T22:18:56.433Z,42.90
2018-03-20T22:21:23.951Z,43.37
2018-03-20T22:23:51.511Z,44.20
2018-03-20T22:26:19.046Z,40.95
2018-03-20T22:28:47.343Z,36.23
2018-03-20T22:31:14.973Z,45.17
2018-03-20T22:33:42.491Z,46.57
2018-03-20T22:36:10.137Z,44.63
2018-03-20T22:38:37.693Z,51.33
2018-03-20T22:41:05.222Z,60.30
2018-03-20T22:43:32.816Z,66.80
2018-03-20T22:46:00.343Z,46.80
2018-03-20T22:48:29.848Z,48.10
2018-03-20T22:50:58.763Z,50.23
2018-03-20T22:53:26.352Z,47.43
2018-03-20T22:55:53.903Z,48.10
2018-03-20T22:58:21.422Z,42.00
2018-03-20T23:00:49.750Z,44.53
2018-03-20T23:03:17.329Z,48.07
2018-03-20T23:05:45.046Z,46.17
2018-03-20T23:08:12.594Z,43.20
2018-03-20T23:10:40.121Z,49.70
2018-03-20T23:13:07.755Z,40.37
2018-03-20T23:15:35.287Z,37.20
2018-03-20T23:18:02.812Z,38.43
2018-03-20T23:20:31.130Z,40.93
2018-03-20T23:22:58.671Z,45.07
2018-03-20T23:25:26.927Z,33.57
2018-03-20T23:27:55.222Z,34.60
2018-03-20T23:30:22.755Z,36.37
2018-03-20T23:32:51.074Z,34.77
2018-03-20T23:35:18.603Z,33.03
2018-03-20T23:37:46.152Z,32.90
2018-03-20T23:40:13.706Z,41.20
2018-03-20T23:42:41.282Z,46.67
2018-03-20T23:45:08.801Z,55.30
2018-03-20T23:47:37.114Z,44.90
2018-03-20T23:50:04.647Z,47.17
2018-03-20T23:52:32.170Z,52.20
2018-03-20T23:54:59.737Z,44.50
2018-03-20T23:57:27.270Z,49.23
2018-03-20T23:59:54.840Z,44.80
